createdAt,value
2023-05-07T00:02:18.992Z,3.95
2023-05-07T00:04:50.417Z,4.85
2023-05-07T00:09:53.207Z,4.90
2023-05-07T00:12:24.596Z,9.25
2023-05-07T00:14:55.931Z,5.43
2023-05-07T00:17:27.329Z,5.88
2023-05-07T00:19:58.755Z,7.20
2023-05-07T00:22:30.987Z,10.75
2023-05-07T00:25:02.874Z,6.53
2023-05-07T00:27:36.812Z,8.32
2023-05-07T00:30:09.186Z,7.38
2023-05-07T00:32:41.225Z,8.68
2023-05-07T00:35:12.761Z,8.20
2023-05-07T00:37:44.045Z,8.20
2023-05-07T00:40:15.567Z,7.43
2023-05-07T00:42:49.395Z,5.88
2023-05-07T00:45:21.183Z,9.25
2023-05-07T00:47:52.387Z,8.63
2023-05-07T00:52:55.143Z,9.48
2023-05-07T00:57:57.681Z,10.95
2023-05-07T01:00:29.596Z,11.25
2023-05-07T01:05:33.021Z,12.23
2023-05-07T01:08:05.924Z,13.55
2023-05-07T01:10:38.007Z,12.10
2023-05-07T01:13:09.654Z,9.63
2023-05-07T01:15:43.629Z,13.77
2023-05-07T01:18:15.115Z,10.57
2023-05-07T01:20:47.571Z,9.07
2023-05-07T01:23:19.201Z,13.52
2023-05-07T01:25:57.518Z,10.80
2023-05-07T01:28:30.995Z,12.88
2023-05-07T01:31:06.392Z,10.20
2023-05-07T01:33:39.957Z,13.75
2023-05-07T01:36:12.961Z,12.15
2023-05-07T01:38:45.050Z,15.50
2023-05-07T01:41:16.349Z,13.50
2023-05-07T01:43:48.091Z,14.75
2023-05-07T01:46:19.683Z,15.48
2023-05-07T01:48:51.780Z,14.20
2023-05-07T01:51:24.617Z,11.57
2023-05-07T01:53:56.516Z,17.20
2023-05-07T01:56:29.140Z,18.50
2023-05-07T01:59:00.788Z,16.85
2023-05-07T02:01:34.138Z,17.30
2023-05-07T02:04:07.465Z,15.27
2023-05-07T02:06:39.343Z,12.98
2023-05-07T02:09:12.809Z,13.98
2023-05-07T02:11:47.372Z,17.02
2023-05-07T02:14:22.676Z,16.02
2023-05-07T02:16:54.433Z,14.23
2023-05-07T02:19:26.409Z,12.07
2023-05-07T02:21:58.412Z,11.00
2023-05-07T02:24:33.811Z,14.52
2023-05-07T02:29:37.286Z,13.98
2023-05-07T02:32:08.797Z,15.85
2023-05-07T02:34:40.802Z,16.63
2023-05-07T02:37:12.700Z,13.93
2023-05-07T02:42:14.680Z,12.93
2023-05-07T02:44:45.984Z,14.25
2023-05-07T02:47:18.901Z,16.90
2023-05-07T02:49:50.844Z,16.35
2023-05-07T02:52:22.363Z,17.58
2023-05-07T02:57:24.662Z,14.00
2023-05-07T02:59:56.648Z,14.35
2023-05-07T03:02:28.108Z,14.88
2023-05-07T03:04:59.538Z,14.88
2023-05-07T03:07:32.488Z,17.23
2023-05-07T03:10:04.365Z,16.58
2023-05-07T03:12:37.142Z,14.88
2023-05-07T03:15:09.197Z,11.73
2023-05-07T03:17:43.246Z,15.88
2023-05-07T03:20:15.998Z,12.48
2023-05-07T03:22:47.999Z,8.88
2023-05-07T03:27:50.455Z,14.38
2023-05-07T03:30:24.879Z,12.35
2023-05-07T03:35:27.189Z,12.70
2023-05-07T03:37:58.536Z,14.30
2023-05-07T03:40:32.713Z,12.35
2023-05-07T03:45:37.112Z,12.82
2023-05-07T03:48:18.558Z,10.35
2023-05-07T03:50:50.813Z,13.05
2023-05-07T03:53:23.742Z,9.32
2023-05-07T03:55:55.316Z,9.45
2023-05-07T03:58:26.760Z,10.90
2023-05-07T04:01:02.235Z,10.55
2023-05-07T04:03:33.600Z,11.52
2023-05-07T04:06:05.624Z,13.05
2023-05-07T04:08:39.234Z,15.73
2023-05-07T04:11:12.015Z,10.02
2023-05-07T04:16:14.118Z,10.77
2023-05-07T04:18:46.085Z,11.05
2023-05-07T04:21:23.217Z,12.52
2023-05-07T04:23:55.862Z,9.27
2023-05-07T04:26:27.680Z,10.85
2023-05-07T04:31:35.328Z,10.48
2023-05-07T04:34:06.507Z,13.30
2023-05-07T04:36:37.748Z,9.93
2023-05-07T04:39:14.977Z,10.95
2023-05-07T04:41:48.528Z,9.82
2023-05-07T04:46:52.711Z,9.75
2023-05-07T04:49:24.140Z,11.35
2023-05-07T04:51:58.126Z,12.95
2023-05-07T04:54:29.420Z,10.77
2023-05-07T04:57:00.688Z,14.90
2023-05-07T04:59:32.419Z,13.68
2023-05-07T05:02:04.365Z,15.60
2023-05-07T05:04:36.394Z,10.30
2023-05-07T05:07:08.646Z,13.15
2023-05-07T05:09:40.483Z,13.82
2023-05-07T05:12:12.586Z,10.15
2023-05-07T05:17:15.423Z,11.67
2023-05-07T05:19:47.298Z,13.70
2023-05-07T05:22:19.575Z,13.63
2023-05-07T05:24:51.334Z,12.23
2023-05-07T05:27:22.850Z,11.88
2023-05-07T05:29:54.707Z,11.43
2023-05-07T05:32:26.567Z,13.65
2023-05-07T05:35:00.399Z,11.40
2023-05-07T05:37:34.094Z,10.52
2023-05-07T05:40:08.010Z,9.70
2023-05-07T05:42:39.584Z,9.77
2023-05-07T05:45:12.225Z,11.35
2023-05-07T05:47:44.710Z,8.48
2023-05-07T05:50:15.957Z,10.15
2023-05-07T05:52:47.365Z,7.82
2023-05-07T05:55:19.751Z,10.07
2023-05-07T05:57:54.136Z,8.02
2023-05-07T06:00:26.316Z,10.05
2023-05-07T06:03:05.747Z,7.30
2023-05-07T06:05:38.796Z,8.57
2023-05-07T06:10:41.517Z,9.35
2023-05-07T06:13:12.827Z,6.55
2023-05-07T06:15:45.219Z,6.03
2023-05-07T06:18:17.874Z,6.32
2023-05-07T06:20:50.271Z,7.32
2023-05-07T06:23:28.989Z,9.95
2023-05-07T06:26:03.228Z,8.63
2023-05-07T06:28:39.871Z,10.88
2023-05-07T06:31:16.489Z,11.45
2023-05-07T06:33:55.082Z,8.63
2023-05-07T06:36:29.781Z,9.55
2023-05-07T06:39:02.857Z,7.78
2023-05-07T06:41:34.305Z,9.20
2023-05-07T06:44:11.224Z,8.38
2023-05-07T06:46:52.177Z,6.47
2023-05-07T06:49:24.242Z,5.32
2023-05-07T06:51:55.670Z,5.70
2023-05-07T06:54:27.514Z,6.03
2023-05-07T06:56:58.749Z,3.80
2023-05-07T06:59:31.962Z,5.22
2023-05-07T07:02:04.056Z,7.40
2023-05-07T07:04:35.871Z,6.93
2023-05-07T07:07:10.851Z,6.80
2023-05-07T07:09:43.501Z,4.18
2023-05-07T07:12:15.696Z,3.58
2023-05-07T07:14:47.510Z,6.22
2023-05-07T07:17:19.461Z,7.95
2023-05-07T07:19:50.939Z,5.38
2023-05-07T07:22:23.143Z,18.90
2023-05-07T07:24:54.887Z,5.00
2023-05-07T07:27:30.729Z,5.22
2023-05-07T07:30:02.092Z,4.30
2023-05-07T07:32:37.259Z,5.13
2023-05-07T07:35:09.867Z,5.07
2023-05-07T07:37:42.958Z,5.50
2023-05-07T07:40:15.764Z,4.32
2023-05-07T07:42:48.920Z,5.47
2023-05-07T07:45:23.467Z,4.88
2023-05-07T07:47:56.304Z,5.60
2023-05-07T07:53:15.277Z,4.57
2023-05-07T07:55:46.633Z,4.30
2023-05-07T07:58:21.385Z,10.35
2023-05-07T08:00:53.596Z,6.38
2023-05-07T08:03:25.778Z,5.93
2023-05-07T08:06:01.591Z,7.32
2023-05-07T08:08:34.598Z,6.45
2023-05-07T08:13:40.384Z,6.75
2023-05-07T08:16:11.919Z,7.13
2023-05-07T08:18:43.813Z,8.60
2023-05-07T08:23:47.195Z,5.70
2023-05-07T08:26:19.620Z,9.00
2023-05-07T08:28:51.603Z,11.15
2023-05-07T08:31:23.118Z,7.50
2023-05-07T08:33:54.500Z,8.88
2023-05-07T08:36:25.711Z,8.13
2023-05-07T08:38:57.354Z,9.82
2023-05-07T08:41:28.635Z,8.55
2023-05-07T08:46:35.324Z,9.00
2023-05-07T08:49:07.451Z,190.20
2023-05-07T08:51:39.660Z,421.23
2023-05-07T08:54:11.149Z,283.08
2023-05-07T08:56:42.672Z,426.58
2023-05-07T08:59:14.652Z,89.22
2023-05-07T09:01:49.104Z,237.52
2023-05-07T09:04:21.345Z,289.88
2023-05-07T09:06:54.105Z,179.60
2023-05-07T09:09:27.033Z,136.75
2023-05-07T09:12:03.134Z,10.75
2023-05-07T09:14:37.339Z,9.82
2023-05-07T09:17:09.292Z,8.25
2023-05-07T09:19:41.594Z,4.65
2023-05-07T09:22:13.227Z,6.65
2023-05-07T09:24:56.096Z,8.23
2023-05-07T09:27:33.916Z,5.93
2023-05-07T09:30:12.645Z,6.25
2023-05-07T09:32:44.429Z,6.38
2023-05-07T09:35:21.174Z,9.23
2023-05-07T09:38:04.217Z,8.27
2023-05-07T09:43:16.393Z,20.88
2023-05-07T09:45:57.507Z,8.18
2023-05-07T09:48:33.208Z,8.10
2023-05-07T09:51:09.919Z,9.05
2023-05-07T09:53:41.676Z,9.43
2023-05-07T09:56:18.644Z,6.28
2023-05-07T09:58:50.477Z,8.98
2023-05-07T10:01:24.532Z,13.48
2023-05-07T10:03:56.594Z,11.55
2023-05-07T10:06:29.154Z,9.68
2023-05-07T10:09:00.198Z,8.57
2023-05-07T10:11:31.560Z,9.38
2023-05-07T10:14:05.155Z,12.88
2023-05-07T10:16:38.843Z,31.85
2023-05-07T10:19:15.553Z,60.28
2023-05-07T10:21:59.282Z,36.83
2023-05-07T10:24:39.346Z,60.10
2023-05-07T10:27:17.567Z,98.07
2023-05-07T10:30:18.173Z,8.63
2023-05-07T10:32:54.056Z,49.80
2023-05-07T10:35:35.859Z,90.22
2023-05-07T10:38:08.363Z,275.10
2023-05-07T10:40:41.767Z,171.20
2023-05-07T10:43:13.150Z,300.75
2023-05-07T10:46:17.569Z,120.15
2023-05-07T10:49:08.859Z,135.38
2023-05-07T10:51:48.334Z,86.97
2023-05-07T10:54:28.709Z,65.93
2023-05-07T10:57:47.478Z,120.72
2023-05-07T11:00:39.025Z,156.63
2023-05-07T11:03:17.454Z,218.93
2023-05-07T11:06:17.087Z,62.30
2023-05-07T11:08:56.108Z,13.90
2023-05-07T11:11:54.100Z,52.50
2023-05-07T11:14:48.221Z,17.63
2023-05-07T11:18:02.054Z,11.57
2023-05-07T11:20:55.080Z,37.60
2023-05-07T11:23:58.761Z,14.48
2023-05-07T11:26:55.212Z,9.88
2023-05-07T11:29:30.234Z,7.47
2023-05-07T11:32:09.198Z,12.40
2023-05-07T11:34:50.739Z,7.78
2023-05-07T11:37:23.013Z,9.07
2023-05-07T11:40:10.307Z,8.52
2023-05-07T11:42:45.328Z,9.80
2023-05-07T11:45:29.739Z,9.05
2023-05-07T11:48:01.004Z,7.50
2023-05-07T11:50:32.558Z,8.68
2023-05-07T11:53:03.703Z,8.85
2023-05-07T11:55:35.193Z,8.38
2023-05-07T11:58:07.845Z,8.18
2023-05-07T12:00:40.446Z,11.48
2023-05-07T12:03:11.714Z,8.57
2023-05-07T12:05:44.417Z,10.90
2023-05-07T12:08:19.963Z,8.55
2023-05-07T12:10:54.843Z,12.40
2023-05-07T12:13:28.600Z,10.68
2023-05-07T12:16:00.498Z,10.20
2023-05-07T12:21:03.195Z,8.90
2023-05-07T12:23:34.665Z,9.02
2023-05-07T12:26:07.832Z,7.80
2023-05-07T12:28:41.639Z,9.68
2023-05-07T12:31:13.003Z,12.80
2023-05-07T12:33:46.394Z,8.45
2023-05-07T12:36:18.289Z,11.05
2023-05-07T12:41:20.931Z,8.70
2023-05-07T12:46:22.225Z,7.88
2023-05-07T12:48:53.642Z,10.38
2023-05-07T12:51:24.979Z,8.60
2023-05-07T12:53:59.809Z,8.23
2023-05-07T12:56:34.674Z,6.90
2023-05-07T12:59:06.437Z,8.65
2023-05-07T13:01:37.958Z,7.82
2023-05-07T13:06:41.669Z,7.47
2023-05-07T13:09:12.946Z,7.57
2023-05-07T13:14:15.711Z,10.50
2023-05-07T13:16:47.106Z,7.13
2023-05-07T13:19:18.858Z,8.60
2023-05-07T13:21:50.094Z,8.55
2023-05-07T13:26:52.948Z,7.75
2023-05-07T13:32:00.408Z,6.75
2023-05-07T13:34:32.462Z,8.93
2023-05-07T13:37:05.223Z,9.38
2023-05-07T13:39:36.877Z,7.80
2023-05-07T13:42:08.037Z,9.57
2023-05-07T13:44:39.489Z,10.25
2023-05-07T13:47:10.811Z,8.27
2023-05-07T13:49:42.360Z,10.77
2023-05-07T13:52:13.539Z,7.70
2023-05-07T13:54:44.869Z,8.93
2023-05-07T13:57:16.141Z,8.82
2023-05-07T13:59:48.735Z,9.55
2023-05-07T14:02:20.221Z,9.57
2023-05-07T14:04:51.832Z,9.25
2023-05-07T14:09:53.808Z,11.70
2023-05-07T14:12:25.183Z,7.18
2023-05-07T14:14:56.819Z,9.50
2023-05-07T14:17:29.535Z,8.15
2023-05-07T14:20:01.312Z,6.53
2023-05-07T14:22:35.349Z,6.85
2023-05-07T14:25:07.464Z,8.27
2023-05-07T14:27:38.956Z,9.98
2023-05-07T14:30:10.866Z,9.48
2023-05-07T14:32:42.167Z,10.85
2023-05-07T14:35:15.480Z,9.35
2023-05-07T14:37:47.343Z,6.75
2023-05-07T14:40:21.187Z,7.40
2023-05-07T14:45:24.597Z,8.63
2023-05-07T14:47:55.997Z,10.05
2023-05-07T14:53:04.913Z,7.53
2023-05-07T14:55:37.618Z,9.10
2023-05-07T14:58:08.906Z,7.35
2023-05-07T15:00:40.638Z,6.22
2023-05-07T15:03:13.776Z,7.38
2023-05-07T15:05:48.692Z,4.60
2023-05-07T15:08:20.841Z,4.85
2023-05-07T15:10:52.311Z,6.85
2023-05-07T15:15:54.947Z,6.43
2023-05-07T15:18:27.212Z,7.03
2023-05-07T15:21:00.483Z,7.10
2023-05-07T15:23:32.703Z,6.57
2023-05-07T15:26:06.649Z,7.13
2023-05-07T15:28:40.339Z,5.93
2023-05-07T15:31:16.466Z,4.35
2023-05-07T15:33:49.936Z,5.70
2023-05-07T15:36:23.998Z,5.97
2023-05-07T15:38:55.465Z,6.72
2023-05-07T15:41:27.675Z,7.13
2023-05-07T15:43:59.185Z,5.38
2023-05-07T15:49:15.518Z,5.97
2023-05-07T15:52:03.855Z,5.38
2023-05-07T15:54:35.266Z,2.95
2023-05-07T15:59:45.075Z,6.60
2023-05-07T16:02:16.870Z,5.38
2023-05-07T16:04:48.317Z,4.30
2023-05-07T16:07:21.409Z,5.18
2023-05-07T16:09:54.754Z,6.25
2023-05-07T16:12:25.907Z,6.13
2023-05-07T16:14:57.528Z,5.90
2023-05-07T16:17:28.682Z,5.43
2023-05-07T16:20:00.596Z,4.18
2023-05-07T16:22:36.005Z,8.10
2023-05-07T16:25:07.601Z,6.45
2023-05-07T16:27:38.984Z,9.82
2023-05-07T16:30:11.078Z,8.48
2023-05-07T16:35:13.503Z,10.05
2023-05-07T16:37:45.565Z,6.20
2023-05-07T16:40:17.062Z,9.00
2023-05-07T16:42:48.660Z,6.75
2023-05-07T16:45:20.709Z,8.60
2023-05-07T16:47:52.315Z,9.63
2023-05-07T16:50:24.030Z,8.30
2023-05-07T16:52:55.253Z,9.82
2023-05-07T16:55:27.201Z,9.00
2023-05-07T16:57:58.897Z,5.90
2023-05-07T17:00:38.265Z,7.10
2023-05-07T17:03:21.529Z,10.43
2023-05-07T17:05:53.160Z,9.63
2023-05-07T17:08:28.912Z,9.48
2023-05-07T17:11:01.806Z,8.32
2023-05-07T17:13:33.146Z,8.60
2023-05-07T17:16:05.293Z,7.50
2023-05-07T17:18:36.870Z,9.77
2023-05-07T17:21:08.702Z,8.45
2023-05-07T17:26:20.041Z,9.43
2023-05-07T17:28:51.114Z,9.80
2023-05-07T17:31:22.501Z,12.80
2023-05-07T17:33:54.114Z,8.43
2023-05-07T17:36:25.493Z,10.90
2023-05-07T17:38:57.679Z,9.48
2023-05-07T17:41:29.232Z,10.68
2023-05-07T17:44:00.665Z,10.20
2023-05-07T17:46:32.136Z,8.50
2023-05-07T17:49:03.584Z,12.77
2023-05-07T17:54:22.906Z,9.32
2023-05-07T17:56:54.813Z,11.27
2023-05-07T17:59:26.622Z,10.82
2023-05-07T18:01:58.276Z,10.85
2023-05-07T18:04:30.073Z,11.88
2023-05-07T18:07:01.529Z,9.77
2023-05-07T18:09:33.239Z,13.23
2023-05-07T18:12:08.034Z,10.68
2023-05-07T18:14:39.611Z,10.70
2023-05-07T18:17:10.977Z,16.42
2023-05-07T18:19:42.424Z,9.35
2023-05-07T18:22:13.834Z,13.60
2023-05-07T18:24:45.226Z,13.98
2023-05-07T18:27:16.590Z,14.32
2023-05-07T18:29:48.032Z,12.30
2023-05-07T18:32:19.369Z,10.95
2023-05-07T18:34:51.108Z,11.90
2023-05-07T18:39:55.665Z,11.93
2023-05-07T18:42:26.944Z,11.57
2023-05-07T18:44:57.998Z,10.20
2023-05-07T18:47:29.081Z,9.77
2023-05-07T18:50:01.978Z,8.75
2023-05-07T18:52:34.399Z,9.32
2023-05-07T18:55:06.749Z,10.45
2023-05-07T18:57:38.198Z,10.18
2023-05-07T19:00:10.814Z,8.13
2023-05-07T19:02:42.668Z,9.05
2023-05-07T19:05:14.736Z,7.65
2023-05-07T19:07:47.499Z,7.65
2023-05-07T19:10:20.500Z,8.07
2023-05-07T19:12:56.755Z,6.18
2023-05-07T19:15:28.032Z,10.40
2023-05-07T19:17:59.473Z,7.00
2023-05-07T19:20:32.457Z,10.68
2023-05-07T19:25:35.358Z,9.70
2023-05-07T19:28:06.904Z,9.48
2023-05-07T19:33:11.638Z,10.10
2023-05-07T19:35:42.988Z,13.60
2023-05-07T19:38:14.284Z,10.02
2023-05-07T19:40:46.481Z,6.57
2023-05-07T19:43:17.664Z,8.98
2023-05-07T19:45:49.675Z,10.23
2023-05-07T19:48:21.011Z,10.25
2023-05-07T19:50:52.865Z,13.27
2023-05-07T19:53:24.173Z,13.40
2023-05-07T19:56:16.319Z,8.85
2023-05-07T19:58:47.554Z,9.18
2023-05-07T20:01:19.099Z,9.40
2023-05-07T20:03:50.529Z,10.35
2023-05-07T20:08:52.856Z,11.77
2023-05-07T20:11:24.327Z,12.25
2023-05-07T20:13:56.142Z,10.02
2023-05-07T20:16:27.606Z,8.52
2023-05-07T20:21:29.988Z,10.73
2023-05-07T20:24:01.554Z,11.35
2023-05-07T20:26:33.253Z,10.93
2023-05-07T20:29:05.732Z,9.07
2023-05-07T20:31:42.233Z,9.70
2023-05-07T20:34:13.792Z,11.05
2023-05-07T20:36:46.413Z,10.32
2023-05-07T20:39:18.548Z,9.85
2023-05-07T20:41:50.506Z,13.48
2023-05-07T20:44:21.728Z,14.30
2023-05-07T20:46:53.059Z,11.68
2023-05-07T20:49:24.608Z,11.38
2023-05-07T20:51:56.234Z,11.85
2023-05-07T20:54:29.474Z,11.32
2023-05-07T20:57:01.635Z,9.05
2023-05-07T20:59:36.386Z,11.27
2023-05-07T21:02:07.545Z,11.88
2023-05-07T21:04:39.048Z,12.05
2023-05-07T21:09:40.810Z,10.43
2023-05-07T21:12:12.079Z,15.63
2023-05-07T21:14:52.327Z,11.52
2023-05-07T21:17:23.628Z,11.70
2023-05-07T21:19:54.622Z,10.60
2023-05-07T21:22:26.915Z,9.88
2023-05-07T21:24:58.190Z,10.50
2023-05-07T21:27:32.286Z,8.98
2023-05-07T21:30:06.059Z,10.52
2023-05-07T21:32:37.050Z,12.13
2023-05-07T21:35:08.923Z,8.52
2023-05-07T21:40:11.840Z,10.82
2023-05-07T21:42:43.621Z,12.48
2023-05-07T21:45:15.587Z,11.35
2023-05-07T21:47:47.331Z,10.52
2023-05-07T21:50:19.072Z,12.05
2023-05-07T21:52:50.765Z,11.02
2023-05-07T21:55:22.503Z,9.73
2023-05-07T22:00:36.644Z,13.60
2023-05-07T22:03:07.798Z,11.60
2023-05-07T22:05:38.883Z,9.73
2023-05-07T22:08:09.953Z,9.13
2023-05-07T22:10:41.871Z,13.40
2023-05-07T22:13:13.768Z,10.15
2023-05-07T22:15:53.642Z,10.23
2023-05-07T22:18:28.960Z,14.50
2023-05-07T22:23:30.647Z,12.10
2023-05-07T22:26:01.950Z,11.15
2023-05-07T22:28:33.056Z,11.43
2023-05-07T22:31:04.409Z,5.47
2023-05-07T22:33:36.577Z,16.58
2023-05-07T22:36:09.483Z,13.25
2023-05-07T22:38:40.628Z,9.93
2023-05-07T22:41:11.718Z,10.75
2023-05-07T22:43:43.669Z,10.00
2023-05-07T22:46:15.233Z,9.60
2023-05-07T22:48:46.529Z,13.02
2023-05-07T22:51:17.753Z,9.10
2023-05-07T22:53:49.083Z,11.10
2023-05-07T22:56:20.832Z,10.02
2023-05-07T22:58:52.085Z,8.48
2023-05-07T23:01:23.973Z,11.18
2023-05-07T23:06:26.141Z,9.98
2023-05-07T23:08:57.909Z,9.05
2023-05-07T23:11:29.170Z,14.07
2023-05-07T23:14:00.836Z,10.50
2023-05-07T23:16:34.687Z,9.05
2023-05-07T23:19:06.638Z,8.07
2023-05-07T23:21:37.846Z,11.38
2023-05-07T23:24:09.454Z,8.18
2023-05-07T23:26:41.039Z,9.45
2023-05-07T23:29:12.676Z,12.63
2023-05-07T23:31:44.288Z,5.93
2023-05-07T23:34:15.677Z,8.43
2023-05-07T23:36:46.841Z,7.72
2023-05-07T23:39:17.901Z,10.20
2023-05-07T23:41:49.235Z,10.10
2023-05-07T23:44:21.025Z,8.02
2023-05-07T23:46:52.676Z,17.73
2023-05-07T23:49:23.670Z,9.88
2023-05-07T23:51:55.214Z,10.02
2023-05-07T23:54:26.493Z,8.60
2023-05-07T23:56:57.789Z,8.38
2023-05-07T23:59:30.335Z,10.50
